Skip Navigation Links
NOAA logo - Click to go to the NOAA homepage
NOAA's National Weather Service
Alaska Aviation Weather Unit
  NWS logo - Click to go to the NWS homepage
Left Navbar Graphic     09 AKDT = 17 GMT

   
NOAA is celebrating 200 years of science, service, and stewardship. Visit the NOAA 200th celebration Web site to learn more.
USA.gov is the U.S. Government's official Web portal to all Federal, state and local government Web resources and services.
Facebook
NWS on Facebook

Important Change Regarding the AAWU Web Presence

 

Over the last several months, the AAWU has been working to navigate its webpages to a nationally supported server. Security, as well as other needs, have necessitated the change.  In the process, we have made an effort to enhance the functionality of our website, as well as some of our products. As of June 20, 2017, aawu.arh.noaa.gov will be discontinued. The new AAWU web address is weather.gov/aawu. It is now live and will run in-parallel with the old site until it is discontinued. Please send any feedback or questions regarding the new webpages to nws.ar.aawu.webauthors@noaa.gov.  Thank you for your patience during this time of transition.
AAWU Home :: Display TAF Add Bookmark
METAR PAOO 271156Z AUTO 00000KT 10SM OVC018 01/00 A2987 RMK AO2 RAB13E45
     SLP126 P0000 60001 70001 T00110000 10039 20011 53004
     FZRANO=

METAR PAOO 271256Z AUTO 00000KT 10SM UP SCT018 SCT027 OVC037 01/00 A2987
     RMK AO2 RAB46E55UPB55 SLP127 P0000 T00060000 FZRANO=

SPECI PAOO 271309Z AUTO 00000KT 10SM BKN018 BKN027 OVC040 01/M01 A2988
     RMK AO2 UPE02 P0000 FZRANO=

METAR PAOO 271356Z AUTO 00000KT 10SM FEW020 SCT034 OVC043 01/M01 A2988
     RMK AO2 UPE02 SLP127 P0000 T00061006 FZRANO=

METAR PAOO 271456Z AUTO 00000KT 10SM FEW027 OVC037 01/M01 A2988 RMK
 AO2 SLP128 60000 T00111006 51002 FZRANO=

METAR PAOO 271556Z AUTO 00000KT 10SM OVC035 01/M01 A2988 RMK AO2 SLP129
     T00111006 FZRANO=

METAR PAOO 271656Z AUTO 23005KT 10SM BKN035 02/00 A2988 RMK AO2 SLP131
     T00220000 FZRANO=

PAOO 271721Z AUTO 21007KT 10SM FEW015 BKN022 BKN027 03/00 A2989
     RMK AO2=


NOAA's National Weather Service
Alaska Aviation Weather Unit
6930 Sand Lake Road
Anchorage, AK 99502-1845
Disclaimer
Credits
Glossary
Privacy Policy
About Us
Career Opportunities
Contact AAWU Internet Services Site last modified: April, 17th 2012